createdAt,value
2018-10-15T00:00:35.986Z,99801.86
2018-10-15T00:03:03.657Z,99801.31
2018-10-15T00:05:31.253Z,99806.75
2018-10-15T00:07:58.940Z,99808.78
2018-10-15T00:10:26.640Z,99812.69
2018-10-15T00:12:54.234Z,99804.56
2018-10-15T00:15:25.110Z,99807.31
2018-10-15T00:17:52.699Z,99803.34
2018-10-15T00:20:20.935Z,99801.94
2018-10-15T00:22:48.837Z,99808.49
2018-10-15T00:25:16.519Z,99790.25
2018-10-15T00:27:44.179Z,99808.28
2018-10-15T00:30:12.607Z,99804.05
2018-10-15T00:32:41.091Z,99807.50
2018-10-15T00:35:09.679Z,99814.48
2018-10-15T00:37:38.289Z,99815.80
2018-10-15T00:40:06.065Z,99812.00
2018-10-15T00:42:34.591Z,99818.84
2018-10-15T00:45:02.359Z,99825.58
2018-10-15T00:47:30.195Z,99821.09
2018-10-15T00:49:58.157Z,99811.47
2018-10-15T00:52:25.772Z,99805.69
2018-10-15T00:54:53.469Z,99814.67
2018-10-15T00:57:21.106Z,99818.00
2018-10-15T00:59:48.724Z,99808.26
2018-10-15T01:02:16.370Z,99801.73
2018-10-15T01:04:43.961Z,99804.92
2018-10-15T01:07:11.576Z,99810.45
2018-10-15T01:09:39.167Z,99818.47
2018-10-15T01:12:06.757Z,99819.16
2018-10-15T01:14:34.374Z,99820.14
2018-10-15T01:17:01.964Z,99820.48
2018-10-15T01:19:29.640Z,99817.13
2018-10-15T01:21:57.302Z,99822.92
2018-10-15T01:24:24.974Z,99812.62
2018-10-15T01:26:52.666Z,99820.75
2018-10-15T01:29:20.412Z,99825.35
2018-10-15T01:31:48.018Z,99828.73
2018-10-15T01:34:15.691Z,99823.38
2018-10-15T01:36:43.348Z,99821.93
2018-10-15T01:39:13.086Z,99812.47
2018-10-15T01:41:41.169Z,99813.16
2018-10-15T01:44:08.998Z,99820.55
2018-10-15T01:46:36.725Z,99812.73
2018-10-15T01:49:04.657Z,99801.53
2018-10-15T01:51:32.298Z,99815.56
2018-10-15T01:54:00.230Z,99805.99
2018-10-15T01:56:27.954Z,99801.94
2018-10-15T01:58:55.616Z,99805.70
2018-10-15T02:01:23.414Z,99794.36
2018-10-15T02:03:51.088Z,99798.16
2018-10-15T02:06:18.793Z,99791.31
2018-10-15T02:08:46.444Z,99786.38
2018-10-15T02:11:14.103Z,99789.80
2018-10-15T02:13:41.758Z,99783.55
2018-10-15T02:16:09.425Z,99789.67
2018-10-15T02:18:37.082Z,99778.88
2018-10-15T02:21:04.958Z,99791.48
2018-10-15T02:23:32.622Z,99794.82
2018-10-15T02:26:00.273Z,99794.33
2018-10-15T02:28:27.793Z,99799.27
2018-10-15T02:30:55.865Z,99800.68
2018-10-15T02:33:23.537Z,99804.27
2018-10-15T02:35:51.153Z,99811.75
2018-10-15T02:38:18.761Z,99803.91
2018-10-15T02:40:46.379Z,99804.08
2018-10-15T02:43:13.987Z,99808.64
2018-10-15T02:45:41.650Z,99810.68
2018-10-15T02:48:09.365Z,99807.59
2018-10-15T02:50:37.004Z,99816.67
2018-10-15T02:53:05.376Z,99816.56
2018-10-15T02:55:33.077Z,99815.49
2018-10-15T02:58:00.729Z,99812.55
2018-10-15T03:00:28.772Z,99816.69
2018-10-15T03:02:56.360Z,99813.34
2018-10-15T03:05:23.940Z,99808.58
2018-10-15T03:07:51.582Z,99812.69
2018-10-15T03:10:19.195Z,99810.05
2018-10-15T03:12:46.829Z,99798.06
2018-10-15T03:15:14.457Z,99807.20
2018-10-15T03:17:42.062Z,99796.39
2018-10-15T03:20:11.026Z,99785.09
2018-10-15T03:22:39.320Z,99788.19
2018-10-15T03:25:07.750Z,99783.42
2018-10-15T03:27:35.402Z,99786.24
2018-10-15T03:30:03.618Z,99775.58
2018-10-15T03:32:31.273Z,99773.21
2018-10-15T03:34:58.901Z,99778.59
2018-10-15T03:37:26.507Z,99788.43
2018-10-15T03:39:54.174Z,99784.88
2018-10-15T03:42:21.776Z,99793.11
2018-10-15T03:44:49.427Z,99785.30
2018-10-15T03:47:17.105Z,99783.03
2018-10-15T03:49:44.721Z,99779.20
2018-10-15T03:52:12.414Z,99778.64
2018-10-15T03:54:39.995Z,99779.00
2018-10-15T03:57:07.665Z,99783.65
2018-10-15T03:59:35.322Z,99782.38
2018-10-15T04:02:02.974Z,99785.84
2018-10-15T04:04:30.602Z,99788.63
2018-10-15T04:06:58.214Z,99785.25
2018-10-15T04:09:25.900Z,99790.30
2018-10-15T04:11:53.530Z,99787.98
2018-10-15T04:14:21.159Z,99782.38
2018-10-15T04:16:48.870Z,99777.47
2018-10-15T04:19:16.495Z,99769.95
2018-10-15T04:21:44.171Z,99772.59
2018-10-15T04:24:11.759Z,99765.23
2018-10-15T04:26:39.347Z,99769.60
2018-10-15T04:29:06.960Z,99764.05
2018-10-15T04:31:34.559Z,99775.48
2018-10-15T04:34:02.191Z,99775.04
2018-10-15T04:36:29.799Z,99779.97
2018-10-15T04:38:57.374Z,99778.38
2018-10-15T04:41:25.016Z,99776.18
2018-10-15T04:43:52.886Z,99774.53
2018-10-15T04:46:20.542Z,99775.55
2018-10-15T04:48:48.184Z,99772.13
2018-10-15T04:51:15.834Z,99774.63
2018-10-15T04:53:43.420Z,99780.66
2018-10-15T04:56:11.032Z,99780.79
2018-10-15T04:58:38.670Z,99785.97
2018-10-15T05:01:06.542Z,99791.25
2018-10-15T05:03:34.144Z,99784.35
2018-10-15T05:06:01.851Z,99784.73
2018-10-15T05:08:29.529Z,99792.38
2018-10-15T05:10:57.186Z,99790.30
2018-10-15T05:13:24.876Z,99789.63
2018-10-15T05:15:52.597Z,99794.42
2018-10-15T05:18:20.358Z,99786.42
2018-10-15T05:20:47.951Z,99792.80
2018-10-15T05:23:15.691Z,99800.28
2018-10-15T05:25:43.357Z,99788.93
2018-10-15T05:28:11.077Z,99790.29
2018-10-15T05:30:38.868Z,99798.00
2018-10-15T05:33:06.377Z,99791.48
2018-10-15T05:35:34.038Z,99805.20
2018-10-15T05:38:01.653Z,99813.70
2018-10-15T05:40:29.294Z,99814.19
2018-10-15T05:42:56.895Z,99822.85
2018-10-15T05:45:24.594Z,99815.45
2018-10-15T05:47:52.232Z,99818.45
2018-10-15T05:50:19.901Z,99819.63
2018-10-15T05:52:47.527Z,99825.39
2018-10-15T05:55:15.169Z,99820.91
2018-10-15T05:57:42.859Z,99825.78
2018-10-15T06:00:12.262Z,99829.47
2018-10-15T06:02:39.875Z,99830.65
2018-10-15T06:05:08.388Z,99832.49
2018-10-15T06:07:36.202Z,99837.08
2018-10-15T06:10:06.319Z,99842.53
2018-10-15T06:12:35.021Z,99840.42
2018-10-15T06:15:02.649Z,99842.57
2018-10-15T06:17:30.314Z,99835.48
2018-10-15T06:19:58.030Z,99834.06
2018-10-15T06:22:25.700Z,99829.27
2018-10-15T06:24:53.288Z,99839.20
2018-10-15T06:27:20.926Z,99835.80
2018-10-15T06:29:48.512Z,99828.43
2018-10-15T06:32:16.167Z,99834.72
2018-10-15T06:34:43.876Z,99830.38
2018-10-15T06:37:11.567Z,99832.74
2018-10-15T06:39:39.234Z,99833.09
2018-10-15T06:42:06.883Z,99839.59
2018-10-15T06:44:34.545Z,99854.40
2018-10-15T06:47:02.530Z,99832.03
2018-10-15T06:49:30.190Z,99848.84
2018-10-15T06:51:57.906Z,99856.32
2018-10-15T06:54:25.655Z,99845.28
2018-10-15T06:56:53.307Z,99845.62
2018-10-15T06:59:21.024Z,99848.37
2018-10-15T07:01:48.745Z,99866.06
2018-10-15T07:04:16.488Z,99863.36
2018-10-15T07:06:44.196Z,99863.28
2018-10-15T07:09:11.981Z,99867.62
2018-10-15T07:11:39.603Z,99869.09
2018-10-15T07:14:07.293Z,99870.44
2018-10-15T07:16:34.926Z,99874.50
2018-10-15T07:19:02.545Z,99864.44
2018-10-15T07:21:30.211Z,99861.84
2018-10-15T07:23:57.977Z,99865.14
2018-10-15T07:26:25.583Z,99862.73
2018-10-15T07:28:53.247Z,99873.03
2018-10-15T07:31:20.906Z,99877.84
2018-10-15T07:33:48.967Z,99871.11
2018-10-15T07:36:16.826Z,99866.97
2018-10-15T07:38:44.432Z,99870.33
2018-10-15T07:41:12.068Z,99869.55
2018-10-15T07:43:39.695Z,99870.08
2018-10-15T07:46:07.615Z,99864.25
2018-10-15T07:48:35.300Z,99869.75
2018-10-15T07:51:03.174Z,99875.55
2018-10-15T07:53:30.836Z,99864.61
2018-10-15T07:55:58.494Z,99864.59
2018-10-15T07:58:26.217Z,99872.05
2018-10-15T08:00:59.323Z,99871.55
2018-10-15T08:03:26.977Z,99866.42
2018-10-15T08:05:54.637Z,99865.27
2018-10-15T08:08:22.370Z,99855.15
2018-10-15T08:10:49.975Z,99861.62
2018-10-15T08:13:17.614Z,99860.60
2018-10-15T08:15:45.414Z,99871.41
2018-10-15T08:18:12.936Z,99875.70
2018-10-15T08:20:40.634Z,99871.06
2018-10-15T08:23:08.299Z,99872.40
2018-10-15T08:25:36.096Z,99879.67
2018-10-15T08:28:03.867Z,99878.03
2018-10-15T08:30:31.474Z,99884.14
2018-10-15T08:32:59.200Z,99892.59
2018-10-15T08:35:26.906Z,99889.56
2018-10-15T08:37:54.525Z,99887.20
2018-10-15T08:40:22.222Z,99893.61
2018-10-15T08:42:51.012Z,99880.95
2018-10-15T08:45:20.277Z,99885.27
2018-10-15T08:47:48.510Z,99875.46
2018-10-15T08:50:16.831Z,99879.42
2018-10-15T08:52:45.702Z,99874.73
2018-10-15T08:55:13.751Z,99882.72
2018-10-15T08:57:41.562Z,99885.04
2018-10-15T09:00:14.065Z,99884.97
2018-10-15T09:02:41.697Z,99879.36
2018-10-15T09:05:10.759Z,99885.13
2018-10-15T09:07:40.288Z,99890.81
2018-10-15T09:10:10.063Z,99888.28
2018-10-15T09:12:37.812Z,99881.25
2018-10-15T09:15:09.494Z,99887.20
2018-10-15T09:17:37.342Z,99883.74
2018-10-15T09:20:05.369Z,99884.67
2018-10-15T09:22:33.142Z,99885.23
2018-10-15T09:25:00.882Z,99891.75
2018-10-15T09:27:28.653Z,99891.51
2018-10-15T09:29:56.372Z,99902.81
2018-10-15T09:32:23.961Z,99905.64
2018-10-15T09:34:51.655Z,99893.94
2018-10-15T09:37:19.217Z,99899.01
2018-10-15T09:39:46.860Z,99892.22
2018-10-15T09:42:14.517Z,99902.44
2018-10-15T09:44:42.227Z,99909.05
2018-10-15T09:47:10.005Z,99900.98
2018-10-15T09:49:37.636Z,99906.80
2018-10-15T09:52:05.515Z,99907.06
2018-10-15T09:54:33.201Z,99906.56
2018-10-15T09:57:01.126Z,99908.58
2018-10-15T09:59:28.843Z,99900.63
2018-10-15T10:02:02.312Z,99899.88
2018-10-15T10:04:29.979Z,99890.62
2018-10-15T10:06:57.831Z,99895.38
2018-10-15T10:09:25.389Z,99885.77
2018-10-15T10:11:53.025Z,99893.19
2018-10-15T10:14:20.699Z,99885.98
2018-10-15T10:16:48.350Z,99884.45
2018-10-15T10:19:16.025Z,99881.81
2018-10-15T10:21:43.735Z,99891.82
2018-10-15T10:24:11.413Z,99889.67
2018-10-15T10:26:39.075Z,99884.15
2018-10-15T10:29:06.882Z,99881.05
2018-10-15T10:31:34.600Z,99872.75
2018-10-15T10:34:24.750Z,99882.73
2018-10-15T10:36:58.113Z,99882.20
2018-10-15T10:39:25.735Z,99881.55
2018-10-15T10:41:53.417Z,99881.36
2018-10-15T10:44:20.988Z,99881.40
2018-10-15T10:46:48.635Z,99877.94
2018-10-15T10:49:16.289Z,99887.87
2018-10-15T10:51:43.860Z,99878.73
2018-10-15T10:54:11.506Z,99887.14
2018-10-15T10:56:39.231Z,99891.33
2018-10-15T10:59:06.944Z,99895.45
2018-10-15T11:01:34.633Z,99901.23
2018-10-15T11:04:02.327Z,99891.20
2018-10-15T11:06:30.006Z,99899.09
2018-10-15T11:08:57.714Z,99896.64
2018-10-15T11:11:25.413Z,99886.92
2018-10-15T11:13:53.094Z,99874.98
2018-10-15T11:16:20.798Z,99863.84
2018-10-15T11:18:48.527Z,99872.19
2018-10-15T11:21:16.181Z,99871.66
2018-10-15T11:23:43.788Z,99866.63
2018-10-15T11:26:11.474Z,99828.98
2018-10-15T11:28:39.078Z,99884.52
2018-10-15T11:31:06.812Z,99883.69
2018-10-15T11:33:34.500Z,99902.87
2018-10-15T11:36:02.256Z,99892.59
2018-10-15T11:38:29.860Z,99891.75
2018-10-15T11:40:57.552Z,99890.95
2018-10-15T11:43:25.265Z,99893.02
2018-10-15T11:45:53.035Z,99902.47
2018-10-15T11:48:20.781Z,99897.20
2018-10-15T11:50:48.485Z,99900.55
2018-10-15T11:53:16.129Z,99898.02
2018-10-15T11:55:43.725Z,99890.83
2018-10-15T11:58:11.500Z,99885.90
2018-10-15T12:00:39.225Z,99887.97
2018-10-15T12:03:06.947Z,99881.19
2018-10-15T12:05:34.640Z,99886.27
2018-10-15T12:08:02.453Z,99884.24
2018-10-15T12:10:30.120Z,99880.64
2018-10-15T12:12:57.912Z,99873.89
2018-10-15T12:15:25.585Z,99862.38
2018-10-15T12:17:53.289Z,99868.83
2018-10-15T12:20:20.967Z,99862.48
2018-10-15T12:22:48.749Z,99866.53
2018-10-15T12:25:16.982Z,99860.02
2018-10-15T12:27:44.661Z,99852.91
2018-10-15T12:30:13.179Z,99847.45
2018-10-15T12:32:40.811Z,99855.37
2018-10-15T12:35:10.168Z,99847.03
2018-10-15T12:37:38.021Z,99848.63
2018-10-15T12:40:07.133Z,99847.44
2018-10-15T12:42:34.765Z,99850.91
2018-10-15T12:45:03.123Z,99857.84
2018-10-15T12:47:30.770Z,99855.52
2018-10-15T12:49:58.531Z,99854.11
2018-10-15T12:52:26.175Z,99853.08
2018-10-15T12:54:53.806Z,99850.38
2018-10-15T12:57:21.552Z,99847.27
2018-10-15T12:59:49.181Z,99846.38
2018-10-15T13:02:16.807Z,99846.92
2018-10-15T13:04:54.823Z,99848.72
2018-10-15T13:07:22.620Z,99847.92
2018-10-15T13:09:50.222Z,99852.02
2018-10-15T13:12:17.873Z,99851.45
2018-10-15T13:14:45.541Z,99848.03
2018-10-15T13:17:13.261Z,99843.23
2018-10-15T13:19:41.000Z,99839.54
2018-10-15T13:22:08.745Z,99835.69
2018-10-15T13:24:36.384Z,99841.36
2018-10-15T13:27:04.807Z,99839.27
2018-10-15T13:29:32.431Z,99836.03
2018-10-15T13:32:00.062Z,99830.49
2018-10-15T13:34:27.687Z,99837.11
2018-10-15T13:36:55.339Z,99832.04
2018-10-15T13:39:22.961Z,99832.26
2018-10-15T13:41:50.636Z,99829.05
2018-10-15T13:44:18.275Z,99835.45
2018-10-15T13:46:45.887Z,99829.31
2018-10-15T13:49:13.527Z,99837.72
2018-10-15T13:51:41.155Z,99837.30
2018-10-15T13:54:08.991Z,99840.95
2018-10-15T13:56:36.632Z,99837.14
2018-10-15T13:59:04.321Z,99837.48
2018-10-15T14:01:31.958Z,99843.63
2018-10-15T14:03:59.643Z,99840.84
2018-10-15T14:06:27.308Z,99849.23
2018-10-15T14:08:54.941Z,99842.70
2018-10-15T14:11:22.556Z,99851.03
2018-10-15T14:13:50.224Z,99853.36
2018-10-15T14:16:17.851Z,99851.73
2018-10-15T14:18:45.553Z,99857.13
2018-10-15T14:21:13.188Z,99849.30
2018-10-15T14:23:40.872Z,99846.89
2018-10-15T14:26:08.562Z,99859.43
2018-10-15T14:28:36.265Z,99853.89
2018-10-15T14:31:04.481Z,99849.89
2018-10-15T14:33:32.135Z,99851.14
2018-10-15T14:35:59.819Z,99855.98
2018-10-15T14:38:27.525Z,99852.16
2018-10-15T14:40:55.057Z,99853.95
2018-10-15T14:43:22.671Z,99852.90
2018-10-15T14:45:50.299Z,99862.58
2018-10-15T14:48:17.949Z,99863.48
2018-10-15T14:50:45.570Z,99861.51
2018-10-15T14:53:13.195Z,99862.47
2018-10-15T14:55:40.829Z,99862.06
2018-10-15T14:58:08.498Z,99860.17
2018-10-15T15:00:36.105Z,99861.67
2018-10-15T15:03:04.499Z,99859.27
2018-10-15T15:05:32.093Z,99858.08
2018-10-15T15:07:59.693Z,99857.69
2018-10-15T15:10:45.065Z,99860.77
2018-10-15T15:13:30.406Z,99855.25
2018-10-15T15:15:58.096Z,99855.69
2018-10-15T15:18:25.768Z,99857.59
2018-10-15T15:20:53.410Z,99858.79
2018-10-15T15:23:21.178Z,99864.30
2018-10-15T15:25:50.637Z,99861.47
2018-10-15T15:28:18.302Z,99861.20
2018-10-15T15:30:45.998Z,99860.02
2018-10-15T15:33:13.738Z,99858.81
2018-10-15T15:35:41.402Z,99866.90
2018-10-15T15:38:09.085Z,99869.98
2018-10-15T15:40:36.755Z,99866.89
2018-10-15T15:43:04.780Z,99865.80
2018-10-15T15:45:32.630Z,99867.92
2018-10-15T15:48:00.213Z,99862.48
2018-10-15T15:50:27.897Z,99864.05
2018-10-15T15:52:55.617Z,99864.40
2018-10-15T15:55:23.171Z,99857.08
2018-10-15T15:57:50.831Z,99866.46
2018-10-15T16:00:18.474Z,99870.51
2018-10-15T16:02:46.139Z,99870.34
2018-10-15T16:05:13.842Z,99870.80
2018-10-15T16:07:41.591Z,99876.03
2018-10-15T16:10:09.791Z,99883.47
2018-10-15T16:12:37.623Z,99870.79
2018-10-15T16:15:07.105Z,99878.66
2018-10-15T16:17:34.852Z,99875.95
2018-10-15T16:20:02.664Z,99879.69
2018-10-15T16:22:30.321Z,99882.72
2018-10-15T16:24:58.046Z,99886.43
2018-10-15T16:27:25.786Z,99888.98
2018-10-15T16:29:53.583Z,99888.36
2018-10-15T16:32:21.235Z,99894.69
2018-10-15T16:34:48.919Z,99889.58
2018-10-15T16:37:16.568Z,99881.47
2018-10-15T16:39:44.252Z,99891.29
2018-10-15T16:42:11.910Z,99891.12
2018-10-15T16:44:39.569Z,99889.47
2018-10-15T16:47:08.634Z,99895.77
2018-10-15T16:49:36.300Z,99890.47
2018-10-15T16:52:04.167Z,99893.97
2018-10-15T16:54:31.823Z,99898.11
2018-10-15T16:56:59.494Z,99897.10
2018-10-15T16:59:27.310Z,99894.80
2018-10-15T17:01:55.090Z,99893.79
2018-10-15T17:04:22.725Z,99899.75
2018-10-15T17:06:50.386Z,99900.08
2018-10-15T17:09:18.092Z,99892.43
2018-10-15T17:11:46.553Z,99890.09
2018-10-15T17:14:14.542Z,99890.71
2018-10-15T17:16:42.151Z,99891.33
2018-10-15T17:19:11.070Z,99892.62
2018-10-15T17:21:39.492Z,99895.37
2018-10-15T17:24:07.645Z,99892.67
2018-10-15T17:26:35.302Z,99895.81
2018-10-15T17:29:02.997Z,99886.68
2018-10-15T17:31:30.886Z,99887.80
2018-10-15T17:33:58.609Z,99888.63
2018-10-15T17:36:26.435Z,99885.98
2018-10-15T17:38:54.407Z,99894.56
2018-10-15T17:41:22.043Z,99885.67
2018-10-15T17:43:49.743Z,99879.33
2018-10-15T17:46:17.616Z,99878.98
2018-10-15T17:48:45.464Z,99878.22
2018-10-15T17:51:13.181Z,99882.67
2018-10-15T17:53:41.419Z,99881.64
2018-10-15T17:56:09.170Z,99883.92
2018-10-15T17:58:36.884Z,99889.70
2018-10-15T18:01:04.725Z,99885.39
2018-10-15T18:03:32.372Z,99881.91
2018-10-15T18:06:00.091Z,99884.69
2018-10-15T18:08:27.687Z,99885.33
2018-10-15T18:10:55.765Z,99888.79
2018-10-15T18:13:23.435Z,99890.05
2018-10-15T18:15:51.110Z,99892.67
2018-10-15T18:18:18.861Z,99888.84
2018-10-15T18:20:46.701Z,99894.86
2018-10-15T18:23:14.403Z,99897.78
2018-10-15T18:25:42.176Z,99894.00
2018-10-15T18:28:10.931Z,99893.30
2018-10-15T18:30:38.619Z,99895.63
2018-10-15T18:33:06.230Z,99895.83
2018-10-15T18:35:33.897Z,99894.48
2018-10-15T18:38:01.669Z,99911.31
2018-10-15T18:40:29.372Z,99910.61
2018-10-15T18:42:57.235Z,99906.09
2018-10-15T18:45:24.924Z,99916.66
2018-10-15T18:47:52.683Z,99907.45
2018-10-15T18:50:20.968Z,99910.70
2018-10-15T18:52:48.798Z,99912.20
2018-10-15T18:55:16.856Z,99914.84
2018-10-15T18:57:44.775Z,99911.30
2018-10-15T19:00:13.702Z,99912.63
2018-10-15T19:02:42.629Z,99909.44
2018-10-15T19:05:10.468Z,99912.88
2018-10-15T19:07:38.259Z,99910.58
2018-10-15T19:10:07.886Z,99912.20
2018-10-15T19:12:35.809Z,99903.45
2018-10-15T19:15:04.073Z,99906.70
2018-10-15T19:17:31.994Z,99911.24
2018-10-15T19:19:59.611Z,99912.42
2018-10-15T19:22:27.481Z,99908.45
2018-10-15T19:24:55.195Z,99904.48
2018-10-15T19:27:23.057Z,99904.16
2018-10-15T19:29:50.765Z,99902.84
2018-10-15T19:32:18.486Z,99921.07
2018-10-15T19:34:46.251Z,99916.41
2018-10-15T19:37:13.929Z,99925.35
2018-10-15T19:39:41.721Z,99930.64
2018-10-15T19:42:09.436Z,99931.66
2018-10-15T19:44:37.344Z,99925.36
2018-10-15T19:47:05.800Z,99938.58
2018-10-15T19:49:33.641Z,99932.91
2018-10-15T19:52:01.168Z,99925.16
2018-10-15T19:54:28.940Z,99934.06
2018-10-15T19:56:56.660Z,99928.00
2018-10-15T19:59:24.332Z,99923.29
2018-10-15T20:01:52.017Z,99921.72
2018-10-15T20:04:19.754Z,99925.51
2018-10-15T20:06:47.467Z,99923.46
2018-10-15T20:09:15.201Z,99918.63
2018-10-15T20:11:42.832Z,99922.25
2018-10-15T20:14:10.484Z,99920.38
2018-10-15T20:16:38.148Z,99914.57
2018-10-15T20:19:05.919Z,99920.39
2018-10-15T20:21:33.585Z,99923.00
2018-10-15T20:24:01.240Z,99920.98
2018-10-15T20:26:28.955Z,99922.02
2018-10-15T20:28:56.704Z,99929.50
2018-10-15T20:31:24.363Z,99926.97
2018-10-15T20:33:52.143Z,99929.12
2018-10-15T20:36:19.837Z,99935.66
2018-10-15T20:38:47.543Z,99940.31
2018-10-15T20:41:15.375Z,99936.34
2018-10-15T20:43:42.982Z,99945.89
2018-10-15T20:46:10.675Z,99939.13
2018-10-15T20:48:38.371Z,99933.02
2018-10-15T20:51:06.088Z,99932.14
2018-10-15T20:53:33.814Z,99936.19
2018-10-15T20:56:01.653Z,99935.97
2018-10-15T20:58:29.518Z,99934.87
2018-10-15T21:00:57.298Z,99940.03
2018-10-15T21:03:25.055Z,99935.27
2018-10-15T21:05:52.796Z,99936.59
2018-10-15T21:08:20.921Z,99939.59
2018-10-15T21:10:48.886Z,99939.37
2018-10-15T21:13:16.728Z,99939.59
2018-10-15T21:15:44.438Z,99934.88
2018-10-15T21:18:12.307Z,99932.64
2018-10-15T21:20:40.270Z,99935.14
2018-10-15T21:23:08.184Z,99934.31
2018-10-15T21:25:36.260Z,99928.89
2018-10-15T21:28:04.636Z,99926.83
2018-10-15T21:30:32.592Z,99934.02
2018-10-15T21:33:00.681Z,99935.41
2018-10-15T21:35:28.548Z,99934.88
2018-10-15T21:37:56.251Z,99939.67
2018-10-15T21:40:24.279Z,99942.18
2018-10-15T21:42:52.025Z,99943.41
2018-10-15T21:45:19.774Z,99940.47
2018-10-15T21:47:47.441Z,99942.75
2018-10-15T21:50:15.102Z,99946.84
2018-10-15T21:52:42.795Z,99944.73
2018-10-15T21:55:11.518Z,99950.77
2018-10-15T21:57:39.382Z,99937.91
2018-10-15T22:00:13.299Z,99939.36
2018-10-15T22:02:41.370Z,99940.68
2018-10-15T22:05:09.386Z,99938.48
2018-10-15T22:07:37.868Z,99940.98
2018-10-15T22:10:11.727Z,99931.00
2018-10-15T22:12:39.696Z,99936.46
2018-10-15T22:15:08.624Z,99947.33
2018-10-15T22:17:36.313Z,99942.53
2018-10-15T22:20:04.475Z,99940.47
2018-10-15T22:22:32.163Z,99935.76
2018-10-15T22:24:59.955Z,99936.73
2018-10-15T22:27:27.677Z,99936.52
2018-10-15T22:29:55.487Z,99930.66
2018-10-15T22:32:23.169Z,99928.94
2018-10-15T22:34:50.958Z,99934.57
2018-10-15T22:37:18.693Z,99889.00
2018-10-15T22:39:46.437Z,99940.61
2018-10-15T22:42:14.094Z,99937.44
2018-10-15T22:44:41.863Z,99928.95
2018-10-15T22:47:09.768Z,99924.64
2018-10-15T22:49:44.157Z,99923.05
2018-10-15T22:52:11.919Z,99937.73
2018-10-15T22:54:39.601Z,99940.45
2018-10-15T22:57:07.336Z,99940.94
2018-10-15T22:59:35.086Z,99934.95
2018-10-15T23:02:02.849Z,99948.23
2018-10-15T23:04:30.617Z,99949.95
2018-10-15T23:06:58.308Z,99948.85
2018-10-15T23:09:27.111Z,99949.80
2018-10-15T23:11:54.830Z,99954.52
2018-10-15T23:14:22.721Z,99959.88
2018-10-15T23:16:50.476Z,99958.20
2018-10-15T23:19:18.582Z,99962.73
2018-10-15T23:21:46.333Z,99960.19
2018-10-15T23:24:14.025Z,99957.28
2018-10-15T23:26:41.745Z,99955.65
2018-10-15T23:29:10.405Z,99957.80
2018-10-15T23:31:38.250Z,99956.75
2018-10-15T23:34:05.980Z,99961.50
2018-10-15T23:36:33.739Z,99959.97
2018-10-15T23:39:01.472Z,99956.49
2018-10-15T23:41:29.243Z,99961.38
2018-10-15T23:43:56.965Z,99962.42
2018-10-15T23:46:24.714Z,99957.98
2018-10-15T23:48:52.453Z,99962.34
2018-10-15T23:51:26.824Z,99963.31
2018-10-15T23:53:54.518Z,99965.16
2018-10-15T23:56:22.547Z,99968.90
2018-10-15T23:58:50.253Z,99969.30
